Time;durP1;ratioP1;P1;durP2;ratioP2;P2;SDS_P1;SDS_P2;PMS_P1;PMS_P2;Temp;Humidity;BMP_temperature;BMP_pressure;BME280_temperature;BME280_humidity;BME280_pressure;Samples;Min_cycle;Max_cycle;Signal;HPM_P1;HPM_P2
2021/12/24 00:56:00;;;;;;;;;;;;;;;-0.58;78.40;98920.97;4898058;29;19979;-87
2021/12/24 00:58:31;;;;;;;;;;;;;;;-0.62;78.67;98909.97;4895384;29;19911;-89
2021/12/24 01:01:01;;;;;;;;;;;;;;;-0.61;78.58;98903.31;4871662;29;19932;-88
2021/12/24 01:03:31;;;;;;;;;;;;;;;-0.55;78.65;98899.34;4867038;29;19934;-87
2021/12/24 01:09:58;;;;;;;;;;;;;;;-0.54;78.83;98892.69;4948944;23;19959;-86
2021/12/24 01:12:29;;;;;;;;;;;;;;;-0.52;78.68;98881.91;4885257;29;19963;-86
2021/12/24 01:15:04;;;;;;;;;;;;;;;-0.55;78.69;98864.25;4859249;29;20330;-86
2021/12/24 01:17:43;;;;;;;;;;;;;;;-0.54;78.72;98863.47;4878469;29;19932;-90
2021/12/24 01:20:21;;;;;;;;;;;;;;;-0.45;78.19;98857.84;4869123;29;19983;-88
2021/12/24 01:25:45;;;;;;;;;;;;;;;-0.55;78.59;98846.72;4891247;29;19938;-89
2021/12/24 01:52:32;;;;;;;;;;;;;;;-0.59;78.92;98809.00;4877887;29;20056;-90
2021/12/24 04:02:30;;;;;;;;;;;;;;;-0.26;79.74;98705.53;4791720;30;20350;-89
2021/12/24 04:13:56;;;;;;;;;;;;;;;-0.21;79.50;98699.00;4815170;29;19933;-91
2021/12/24 04:32:33;;;;;;;;;;;;;;;-0.15;79.37;98684.13;4738029;30;19983;-87
2021/12/24 04:35:59;;;;;;;;;;;;;;;-0.40;79.25;98695.97;4739166;30;19952;-88
2021/12/24 05:11:10;;;;;;;;;;;;;;;-0.14;79.79;98602.22;4739811;30;19930;-87
2021/12/24 05:23:44;;;;;;;;;;;;;;;-0.30;79.86;98557.56;4734746;30;20604;-83
2021/12/24 05:26:24;;;;;;;;;;;;;;;-0.42;79.36;98544.72;4719916;30;20004;-81
2021/12/24 05:28:59;;;;;;;;;;;;;;;-0.55;80.12;98561.13;4689639;30;20466;-81
2021/12/24 05:31:32;;;;;;;;;;;;;;;-0.47;80.28;98569.69;4736161;30;19935;-80
2021/12/24 05:34:07;;;;;;;;;;;;;;;-0.46;80.60;98571.38;4736910;30;19941;-80
2021/12/24 05:36:38;;;;;;;;;;;;;;;-0.47;80.64;98569.69;4737792;30;20468;-79
2021/12/24 05:39:11;;;;;;;;;;;;;;;-0.40;81.01;98575.69;4770037;30;19930;-79
2021/12/24 05:41:47;;;;;;;;;;;;;;;-0.32;80.97;98562.53;4771601;30;19930;-80
2021/12/24 05:44:20;;;;;;;;;;;;;;;-0.29;81.16;98560.09;4772758;30;19930;-79
2021/12/24 05:47:08;;;;;;;;;;;;;;;-0.19;81.25;98562.00;4756481;30;19929;-80
2021/12/24 05:49:45;;;;;;;;;;;;;;;-0.32;80.91;98552.53;4781322;29;20005;-81
2021/12/24 05:52:41;;;;;;;;;;;;;;;-0.24;81.25;98563.56;4813919;29;19928;-80
2021/12/24 05:55:28;;;;;;;;;;;;;;;-0.30;81.21;98555.91;4851036;29;19928;-80
2021/12/24 05:58:12;;;;;;;;;;;;;;;-0.22;81.33;98556.09;4858401;29;19929;-80
2021/12/24 06:00:50;;;;;;;;;;;;;;;0.03;81.57;98549.94;4866123;29;19983;-80
2021/12/24 06:03:30;;;;;;;;;;;;;;;-0.08;81.17;98540.56;4867646;29;20018;-80
2021/12/24 06:06:06;;;;;;;;;;;;;;;-0.08;81.37;98535.53;4883229;29;19928;-79
2021/12/24 06:08:48;;;;;;;;;;;;;;;-0.01;80.78;98537.38;4893532;29;20377;-80
2021/12/24 06:11:26;;;;;;;;;;;;;;;0.12;81.31;98545.97;4901451;29;20400;-80
2021/12/24 06:17:10;;;;;;;;;;;;;;;0.23;80.97;98556.25;4863474;29;19988;-85
2021/12/24 06:19:43;;;;;;;;;;;;;;;0.26;81.29;98556.34;4856466;29;19935;-83
2021/12/24 06:25:40;;;;;;;;;;;;;;;0.43;81.17;98555.03;4830938;29;20374;-81
2021/12/24 06:28:15;;;;;;;;;;;;;;;0.51;80.86;98563.53;4827786;29;19928;-81
2021/12/24 06:30:45;;;;;;;;;;;;;;;0.50;80.53;98571.91;4859844;29;19932;-80
2021/12/24 06:33:14;;;;;;;;;;;;;;;0.61;81.00;98560.41;4862690;29;19929;-80
2021/12/24 06:35:48;;;;;;;;;;;;;;;0.52;80.12;98558.56;4802221;29;19928;-82
2021/12/24 06:38:19;;;;;;;;;;;;;;;0.42;80.75;98569.22;4847882;29;19948;-81
2021/12/24 06:41:01;;;;;;;;;;;;;;;0.26;80.89;98562.19;4846130;29;19991;-86
2021/12/24 06:43:40;;;;;;;;;;;;;;;0.36;80.66;98571.59;4855333;29;20008;-84
2021/12/24 06:46:12;;;;;;;;;;;;;;;0.31;80.80;98569.81;4821617;29;19928;-81
2021/12/24 06:51:56;;;;;;;;;;;;;;;0.39;80.88;98568.31;4870499;29;20290;-82
2021/12/24 06:54:33;;;;;;;;;;;;;;;0.36;80.38;98563.25;4846742;29;19940;-83
2021/12/24 06:57:20;;;;;;;;;;;;;;;0.26;80.20;98568.88;4787101;29;20449;-83
2021/12/24 06:59:55;;;;;;;;;;;;;;;0.28;80.43;98569.75;4815810;29;20368;-82
2021/12/24 07:06:02;;;;;;;;;;;;;;;0.34;80.82;98572.38;4793191;29;19937;-81
2021/12/24 07:08:41;;;;;;;;;;;;;;;0.36;80.44;98569.09;4804004;29;19937;-82
2021/12/24 07:18:14;;;;;;;;;;;;;;;0.62;80.32;98577.19;4757013;30;20027;-85
2021/12/24 07:21:00;;;;;;;;;;;;;;;0.71;80.78;98592.41;4765233;30;19930;-85
2021/12/24 07:23:31;;;;;;;;;;;;;;;0.78;80.58;98596.75;4770287;30;19973;-80
2021/12/24 07:26:10;;;;;;;;;;;;;;;0.77;80.01;98590.00;4759744;30;20026;-79
2021/12/24 07:29:04;;;;;;;;;;;;;;;0.85;80.36;98591.03;4759387;30;20008;-80
2021/12/24 07:31:42;;;;;;;;;;;;;;;0.82;79.62;98592.63;4759970;30;20401;-79
2021/12/24 07:34:15;;;;;;;;;;;;;;;0.66;79.50;98594.00;4777911;30;19929;-84
2021/12/24 07:36:47;;;;;;;;;;;;;;;0.59;79.77;98589.66;4759458;30;19961;-79
2021/12/24 07:39:19;;;;;;;;;;;;;;;0.64;79.92;98591.47;4745360;30;19983;-79
2021/12/24 07:42:12;;;;;;;;;;;;;;;0.66;80.04;98588.97;4803428;29;19930;-79
2021/12/24 07:44:46;;;;;;;;;;;;;;;0.69;79.49;98589.03;4796215;29;20418;-80
2021/12/24 07:47:27;;;;;;;;;;;;;;;0.71;80.09;98582.38;4810126;29;19936;-81
2021/12/24 07:50:04;;;;;;;;;;;;;;;0.72;79.64;98578.22;4776121;29;19930;-81
2021/12/24 07:52:36;;;;;;;;;;;;;;;0.63;80.10;98578.84;4778723;30;19995;-81
2021/12/24 07:55:10;;;;;;;;;;;;;;;0.57;80.04;98568.72;4806483;29;19968;-80
2021/12/24 07:57:49;;;;;;;;;;;;;;;0.65;80.25;98567.19;4786888;29;20362;-80
2021/12/24 08:00:26;;;;;;;;;;;;;;;0.57;80.04;98571.22;4761154;29;20028;-80
2021/12/24 08:03:01;;;;;;;;;;;;;;;0.47;79.87;98569.31;4865591;29;19965;-82
2021/12/24 08:05:39;;;;;;;;;;;;;;;0.49;80.19;98570.19;4869089;29;19935;-84
2021/12/24 08:08:28;;;;;;;;;;;;;;;0.55;80.03;98567.84;4844652;29;19935;-80
2021/12/24 08:11:21;;;;;;;;;;;;;;;0.68;80.30;98567.25;4855463;29;19935;-85
2021/12/24 08:14:16;;;;;;;;;;;;;;;0.65;79.87;98554.63;4823008;29;19985;-80
2021/12/24 08:17:15;;;;;;;;;;;;;;;0.56;80.35;98561.97;4825368;29;19935;-81
2021/12/24 08:19:58;;;;;;;;;;;;;;;0.65;81.02;98554.63;4851768;29;19960;-80
2021/12/24 08:22:55;;;;;;;;;;;;;;;0.69;80.39;98548.88;4853542;29;19928;-82
2021/12/24 08:32:18;;;;;;;;;;;;;;;0.71;80.80;98552.25;4842515;29;19928;-82
2021/12/24 08:35:04;;;;;;;;;;;;;;;0.84;80.91;98544.13;4834581;29;19936;-83
2021/12/24 08:37:51;;;;;;;;;;;;;;;0.82;80.44;98535.72;4862793;29;19928;-83
2021/12/24 08:40:52;;;;;;;;;;;;;;;0.91;81.10;98540.91;4869464;29;19928;-83
2021/12/24 08:46:39;;;;;;;;;;;;;;;1.16;81.06;98548.09;4874069;29;19967;-80
2021/12/24 08:49:23;;;;;;;;;;;;;;;1.17;81.21;98538.91;4873829;29;20167;-83
2021/12/24 08:55:24;;;;;;;;;;;;;;;1.18;80.18;98536.41;4864359;29;19934;-82
2021/12/24 09:10:43;;;;;;;;;;;;;;;1.33;80.80;98525.75;5090625;28;19954;-85
2021/12/24 09:13:34;;;;;;;;;;;;;;;1.26;80.56;98531.50;5079651;28;20019;-82
2021/12/24 09:16:34;;;;;;;;;;;;;;;1.35;81.20;98512.41;5082359;28;20271;-83
2021/12/24 09:19:25;;;;;;;;;;;;;;;1.37;80.25;98512.41;5118475;28;19924;-81
2021/12/24 09:22:27;;;;;;;;;;;;;;;1.39;80.28;98517.50;5091545;28;19928;-87
2021/12/24 09:28:17;;;;;;;;;;;;;;;1.34;80.34;98509.88;5061107;28;20024;-85
2021/12/24 09:31:10;;;;;;;;;;;;;;;1.28;80.62;98490.50;4983432;28;19949;-87
2021/12/24 09:34:00;;;;;;;;;;;;;;;1.33;80.81;98498.97;4983788;28;19930;-87
2021/12/24 09:36:41;;;;;;;;;;;;;;;1.35;80.91;98488.94;5005734;28;19927;-86
2021/12/24 09:50:14;;;;;;;;;;;;;;;1.41;80.45;98493.22;4925249;29;19969;-88
2021/12/24 09:56:23;;;;;;;;;;;;;;;1.49;80.69;98490.00;4935287;29;19927;-85
2021/12/24 09:59:11;;;;;;;;;;;;;;;1.42;80.49;98467.28;4989923;28;20394;-84
2021/12/24 10:01:59;;;;;;;;;;;;;;;1.43;81.05;98451.38;4987235;28;19926;-85
2021/12/24 10:07:41;;;;;;;;;;;;;;;1.43;80.72;98447.19;4970071;28;20395;-88
2021/12/24 10:10:28;;;;;;;;;;;;;;;1.41;80.73;98453.88;4941518;28;19926;-85
2021/12/24 10:13:42;;;;;;;;;;;;;;;1.45;81.09;98449.72;4990416;28;19926;-87
2021/12/24 10:25:20;;;;;;;;;;;;;;;1.54;80.72;98449.84;4964875;28;19932;-87
2021/12/24 10:28:15;;;;;;;;;;;;;;;1.49;80.78;98446.44;4963974;28;19929;-88
2021/12/24 10:31:02;;;;;;;;;;;;;;;1.51;80.72;98444.78;5010503;28;19926;-87
2021/12/24 10:34:06;;;;;;;;;;;;;;;1.54;81.41;98444.81;5027654;28;19974;-84
2021/12/24 10:37:05;;;;;;;;;;;;;;;1.60;81.29;98454.97;5038456;28;19984;-87
2021/12/24 10:40:06;;;;;;;;;;;;;;;1.65;80.77;98459.25;5055511;28;19932;-87
2021/12/24 10:43:04;;;;;;;;;;;;;;;1.65;81.62;98473.50;5078141;28;19931;-87
2021/12/24 10:45:45;;;;;;;;;;;;;;;1.69;80.91;98465.16;5038752;28;19933;-88
2021/12/24 10:48:22;;;;;;;;;;;;;;;1.79;81.24;98472.03;5081864;28;19964;-88
2021/12/24 10:51:06;;;;;;;;;;;;;;;1.90;80.90;98465.47;5081498;28;19925;-87
2021/12/24 11:05:56;;;;;;;;;;;;;;;2.01;80.59;98439.66;5091424;28;19924;-85
2021/12/24 11:09:31;;;;;;;;;;;;;;;2.04;81.09;98438.81;5084780;28;19978;-85
2021/12/24 11:12:29;;;;;;;;;;;;;;;2.13;80.56;98446.50;5060035;28;19932;-82
2021/12/24 11:15:20;;;;;;;;;;;;;;;2.13;80.82;98438.09;5084860;28;19924;-86
2021/12/24 11:18:13;;;;;;;;;;;;;;;2.10;80.42;98433.03;5093877;28;19909;-83
2021/12/24 11:21:08;;;;;;;;;;;;;;;1.76;80.42;98441.78;5075060;28;19970;-86
2021/12/24 11:27:00;;;;;;;;;;;;;;;1.97;81.16;98445.44;5065361;28;19978;-89
2021/12/24 11:29:48;;;;;;;;;;;;;;;2.06;80.72;98433.81;5028002;28;19928;-92
2021/12/24 11:35:39;;;;;;;;;;;;;;;1.94;81.07;98426.97;5042251;28;20042;-87
2021/12/24 11:38:16;;;;;;;;;;;;;;;1.98;81.09;98423.66;5045996;28;19929;-87
2021/12/24 11:41:02;;;;;;;;;;;;;;;2.10;81.27;98413.75;5051182;28;20008;-87
2021/12/24 11:46:42;;;;;;;;;;;;;;;2.12;80.48;98422.16;5022189;28;19925;-86
2021/12/24 11:49:18;;;;;;;;;;;;;;;2.01;80.78;98428.72;5061777;28;20422;-88
2021/12/24 11:52:04;;;;;;;;;;;;;;;2.06;81.19;98422.09;5066986;28;19925;-86
2021/12/24 11:57:51;;;;;;;;;;;;;;;2.03;81.56;98417.88;5021454;28;19932;-86
2021/12/24 12:00:32;;;;;;;;;;;;;;;1.85;81.73;98416.75;5017677;28;19928;-87
2021/12/24 12:03:16;;;;;;;;;;;;;;;1.79;82.10;98419.22;5065918;28;19925;-87
2021/12/24 12:12:57;;;;;;;;;;;;;;;2.13;82.30;98413.78;4995532;28;19937;-86
2021/12/24 12:20:35;;;;;;;;;;;;;;;2.25;81.19;98403.88;5083594;28;19913;-87
2021/12/24 13:09:10;;;;;;;;;;;;;;;1.88;82.83;98392.50;4886294;29;20059;-89
2021/12/24 13:20:11;;;;;;;;;;;;;;;1.78;83.13;98398.25;4871965;29;19928;-89
2021/12/24 13:23:19;;;;;;;;;;;;;;;1.84;82.57;98405.03;4875606;29;19932;-90
2021/12/24 13:26:28;;;;;;;;;;;;;;;1.78;82.78;98399.91;4845788;29;20291;-92
2021/12/24 13:29:23;;;;;;;;;;;;;;;1.74;82.95;98398.19;4845536;29;19928;-87
2021/12/24 13:31:59;;;;;;;;;;;;;;;1.72;82.96;98398.19;4851921;29;20015;-91
2021/12/24 13:39:24;;;;;;;;;;;;;;;1.75;83.76;98384.81;4900192;29;20314;-91
2021/12/24 13:46:47;;;;;;;;;;;;;;;1.77;83.94;98398.22;5918564;23;19936;-91
2021/12/24 13:58:51;;;;;;;;;;;;;;;1.80;83.90;98425.94;4976154;23;19933;-92
2021/12/24 14:08:59;;;;;;;;;;;;;;;1.75;83.99;98440.94;4953927;29;19950;-89
2021/12/24 14:11:56;;;;;;;;;;;;;;;1.70;83.67;98435.03;4916059;29;19951;-89
2021/12/24 14:22:11;;;;;;;;;;;;;;;1.63;83.66;98429.91;4951333;28;19927;-89
2021/12/24 14:25:11;;;;;;;;;;;;;;;1.73;83.67;98436.72;4903513;29;19994;-91
2021/12/24 14:27:58;;;;;;;;;;;;;;;1.60;84.34;98437.38;4937103;29;19950;-89
2021/12/24 14:30:48;;;;;;;;;;;;;;;1.62;84.02;98433.22;4933341;29;19994;-89
2021/12/24 14:33:28;;;;;;;;;;;;;;;1.64;84.05;98429.06;4932577;29;19927;-89
